Time;durP1;ratioP1;P1;durP2;ratioP2;P2;SDS_P1;SDS_P2;PMS_P1;PMS_P2;Temp;Humidity;BMP_temperature;BMP_pressure;BME280_temperature;BME280_humidity;BME280_pressure;Samples;Min_cycle;Max_cycle;Signal;HPM_P1;HPM_P2
2023/01/17 00:02:23;;;;;;;11.45;4.03;;;12.50;99.90;;;;;;5061524;28;20048;-74
2023/01/17 00:10:25;;;;;;;8.97;3.50;;;12.50;99.90;;;;;;5059795;28;20413;-75
2023/01/17 00:12:54;;;;;;;14.07;3.72;;;12.40;99.90;;;;;;5058114;28;20332;-75
2023/01/17 00:15:23;;;;;;;12.98;4.35;;;12.30;99.90;;;;;;5070424;28;20051;-74
2023/01/17 00:17:51;;;;;;;8.15;4.35;;;12.30;99.90;;;;;;5067777;28;20088;-75
2023/01/17 00:26:10;;;;;;;8.23;3.60;;;12.20;99.90;;;;;;5050994;28;20131;-74
2023/01/17 01:33:51;;;;;;;10.57;5.15;;;12.00;99.90;;;;;;5057471;28;20036;-75
2023/01/17 01:36:19;;;;;;;21.35;5.65;;;12.10;99.90;;;;;;5048683;28;20067;-75
2023/01/17 01:38:47;;;;;;;7.88;3.92;;;12.10;99.90;;;;;;5089029;28;20449;-75
2023/01/17 01:41:14;;;;;;;10.60;5.65;;;12.10;99.90;;;;;;5069536;28;20196;-75
2023/01/17 01:43:46;;;;;;;20.50;5.07;;;12.10;99.90;;;;;;5069558;28;20048;-75
2023/01/17 01:46:19;;;;;;;16.85;5.97;;;12.20;99.90;;;;;;5048515;28;20491;-74
2023/01/17 01:49:09;;;;;;;13.43;5.68;;;12.20;99.90;;;;;;5048034;28;20110;-75
2023/01/17 01:51:44;;;;;;;17.85;5.28;;;12.30;99.90;;;;;;5048462;28;20460;-74
2023/01/17 01:54:24;;;;;;;18.38;5.68;;;12.30;99.90;;;;;;5041983;28;20044;-74
2023/01/17 01:56:53;;;;;;;9.98;4.55;;;12.30;99.90;;;;;;5048363;28;20154;-74
2023/01/17 01:59:22;;;;;;;16.65;5.00;;;12.30;99.90;;;;;;5048302;28;20510;-74
2023/01/17 02:01:51;;;;;;;9.63;4.40;;;12.40;99.90;;;;;;5031487;28;20135;-74
2023/01/17 02:04:20;;;;;;;11.45;4.05;;;12.40;99.90;;;;;;5059276;28;20063;-74
2023/01/17 02:06:52;;;;;;;12.00;5.57;;;12.40;99.90;;;;;;5048090;28;20407;-75
2023/01/17 02:09:20;;;;;;;10.43;4.03;;;12.30;99.90;;;;;;5048180;28;20049;-74
2023/01/17 02:11:48;;;;;;;14.57;3.55;;;12.40;99.90;;;;;;5049016;28;20523;-74
2023/01/17 02:14:17;;;;;;;13.27;4.00;;;12.40;99.90;;;;;;5059290;28;20179;-74
2023/01/17 02:17:00;;;;;;;9.85;3.75;;;12.40;99.90;;;;;;5067610;28;20067;-74
2023/01/17 02:19:30;;;;;;;13.27;4.35;;;12.50;99.90;;;;;;5067885;28;20048;-73
2023/01/17 02:21:57;;;;;;;10.18;3.85;;;12.50;99.90;;;;;;5068524;28;20044;-73
2023/01/17 02:24:46;;;;;;;13.23;4.22;;;12.50;99.90;;;;;;5050464;28;20048;-73
2023/01/17 02:27:51;;;;;;;8.20;3.30;;;12.50;99.90;;;;;;5067342;28;20051;-73
2023/01/17 02:30:21;;;;;;;20.25;5.65;;;12.50;99.90;;;;;;5067517;28;20472;-73
2023/01/17 02:32:51;;;;;;;12.98;3.55;;;12.50;99.90;;;;;;5050969;28;20534;-74
2023/01/17 02:35:39;;;;;;;11.60;4.78;;;12.50;99.90;;;;;;5068892;28;20490;-74
2023/01/17 02:38:12;;;;;;;8.82;4.35;;;12.40;99.90;;;;;;5067500;28;20040;-73
2023/01/17 02:40:43;;;;;;;13.90;3.95;;;12.50;99.90;;;;;;5068897;28;20072;-74
2023/01/17 02:43:16;;;;;;;17.95;5.72;;;12.60;99.90;;;;;;5067288;28;20044;-73
2023/01/17 02:45:44;;;;;;;13.98;6.47;;;12.60;99.90;;;;;;5068995;28;20482;-74
2023/01/17 02:48:15;;;;;;;11.90;3.80;;;12.70;99.90;;;;;;5067375;28;20133;-74
2023/01/17 02:51:05;;;;;;;10.25;4.05;;;12.60;99.90;;;;;;5068039;28;20098;-74
2023/01/17 02:53:55;;;;;;;10.48;4.53;;;12.60;99.90;;;;;;5068468;28;20158;-74
2023/01/17 02:56:53;;;;;;;11.40;3.40;;;12.60;99.90;;;;;;5050605;28;20174;-74
2023/01/17 02:59:30;;;;;;;6.82;3.72;;;12.50;99.90;;;;;;5046556;28;20138;-73
2023/01/17 03:01:57;;;;;;;;;;;12.50;99.90;;;;;;5068863;28;20383;-74
2023/01/17 03:04:39;;;;;;;11.25;3.65;;;12.50;99.90;;;;;;5068674;28;19946;-73
2023/01/17 03:07:16;;;;;;;11.85;4.20;;;12.50;99.90;;;;;;5068366;28;20043;-74
2023/01/17 03:09:47;;;;;;;15.13;4.63;;;12.60;99.90;;;;;;5068103;28;20037;-73
2023/01/17 03:12:15;;;;;;;8.18;4.55;;;12.70;99.90;;;;;;5067043;28;20074;-73
2023/01/17 03:14:42;;;;;;;12.10;4.72;;;12.60;99.90;;;;;;5068188;28;20047;-73
2023/01/17 03:17:10;;;;;;;13.90;4.20;;;12.70;99.90;;;;;;5066671;28;20067;-73
2023/01/17 03:19:37;;;;;;;21.33;5.47;;;12.70;99.90;;;;;;5068294;28;20048;-73
2023/01/17 03:22:04;;;;;;;10.90;3.97;;;12.70;99.90;;;;;;5068731;28;20479;-74
2023/01/17 03:24:32;;;;;;;10.90;4.28;;;12.70;99.90;;;;;;5068405;28;20157;-73
2023/01/17 03:26:59;;;;;;;12.20;5.22;;;12.70;99.90;;;;;;5066448;28;20127;-73
2023/01/17 03:29:27;;;;;;;8.52;4.25;;;12.80;99.90;;;;;;5066371;28;20044;-73
2023/01/17 03:31:54;;;;;;;13.48;4.90;;;12.80;99.90;;;;;;5067716;28;20037;-73
2023/01/17 03:34:22;;;;;;;14.35;5.47;;;12.80;99.90;;;;;;5065983;28;20087;-73
2023/01/17 03:36:49;;;;;;;15.48;5.55;;;12.80;99.90;;;;;;5067161;28;20055;-74
2023/01/17 03:39:17;;;;;;;14.23;4.05;;;12.80;99.90;;;;;;5068145;28;20192;-73
2023/01/17 03:41:44;;;;;;;15.25;4.25;;;12.80;99.90;;;;;;5068512;28;20048;-73
2023/01/17 03:44:11;;;;;;;12.55;4.72;;;12.70;99.90;;;;;;5054447;28;20045;-73
2023/01/17 03:46:39;;;;;;;16.25;4.55;;;12.80;99.90;;;;;;5070892;28;20043;-74
2023/01/17 03:49:07;;;;;;;10.98;5.00;;;12.80;99.90;;;;;;5070720;28;20539;-74
2023/01/17 03:51:34;;;;;;;17.23;5.38;;;12.70;99.90;;;;;;5071629;28;20064;-74
2023/01/17 03:54:02;;;;;;;11.93;4.93;;;12.70;99.90;;;;;;5070495;28;20469;-73
2023/01/17 03:56:30;;;;;;;16.02;4.60;;;12.80;99.90;;;;;;5071011;28;20044;-74
2023/01/17 03:58:57;;;;;;;16.92;4.88;;;12.90;99.90;;;;;;5070626;28;20032;-74
2023/01/17 04:01:25;;;;;;;14.60;5.05;;;12.90;99.90;;;;;;5050348;28;20049;-73
2023/01/17 04:03:53;;;;;;;8.35;3.65;;;12.90;99.90;;;;;;5033962;28;20127;-74
2023/01/17 04:06:20;;;;;;;16.55;4.18;;;13.00;99.90;;;;;;5052061;28;20041;-74
2023/01/17 04:08:48;;;;;;;15.45;4.72;;;13.10;99.90;;;;;;5070448;28;20048;-74
2023/01/17 04:11:15;;;;;;;13.57;5.07;;;13.10;99.90;;;;;;5071758;28;20045;-74
2023/01/17 04:13:43;;;;;;;14.50;4.05;;;13.10;99.90;;;;;;5070542;28;20067;-73
2023/01/17 04:16:14;;;;;;;11.38;5.13;;;13.10;99.90;;;;;;5072161;28;20536;-73
2023/01/17 04:18:43;;;;;;;15.05;3.78;;;13.10;99.90;;;;;;5069927;28;20047;-74
2023/01/17 04:21:11;;;;;;;14.45;5.22;;;13.10;99.90;;;;;;5053032;28;20142;-73
2023/01/17 04:23:38;;;;;;;10.98;4.28;;;13.10;99.90;;;;;;5071043;28;20052;-73
2023/01/17 04:26:05;;;;;;;14.20;6.38;;;13.00;99.90;;;;;;5071906;28;20045;-73
2023/01/17 04:28:33;;;;;;;9.52;4.80;;;13.00;99.90;;;;;;5053490;28;20044;-73
2023/01/17 04:31:00;;;;;;;11.63;4.05;;;13.00;99.90;;;;;;5071129;28;20044;-74
2023/01/17 04:33:28;;;;;;;12.55;4.75;;;13.00;99.90;;;;;;5071445;28;20047;-74
2023/01/17 04:35:56;;;;;;;20.92;5.05;;;13.00;99.90;;;;;;5071628;28;20040;-73
2023/01/17 04:38:23;;;;;;;11.70;4.57;;;13.00;99.90;;;;;;5071489;28;20048;-73
2023/01/17 04:40:51;;;;;;;12.10;5.00;;;13.00;99.90;;;;;;5070327;28;20051;-73
2023/01/17 04:43:18;;;;;;;14.40;4.05;;;13.10;99.90;;;;;;5052987;28;20402;-73
2023/01/17 04:45:46;;;;;;;13.68;5.00;;;13.10;99.90;;;;;;5071196;28;20078;-74
2023/01/17 04:48:13;;;;;;;14.73;5.07;;;13.10;99.90;;;;;;5053063;28;20114;-73
2023/01/17 04:50:41;;;;;;;8.70;3.75;;;13.20;99.90;;;;;;5071038;28;20885;-74
2023/01/17 04:53:08;;;;;;;13.40;5.38;;;13.10;99.90;;;;;;5070354;28;20052;-73
2023/01/17 04:55:35;;;;;;;12.18;5.30;;;13.10;99.90;;;;;;5069590;28;20138;-74
2023/01/17 04:58:03;;;;;;;11.82;4.43;;;13.10;99.90;;;;;;5069442;28;20040;-74
2023/01/17 05:00:30;;;;;;;13.98;4.70;;;13.10;99.90;;;;;;5069698;28;20122;-73
2023/01/17 05:02:58;;;;;;;9.18;3.70;;;13.10;99.90;;;;;;5070403;28;20094;-74
2023/01/17 05:05:25;;;;;;;12.27;4.25;;;13.20;99.90;;;;;;5070061;28;20052;-73
2023/01/17 05:07:54;;;;;;;12.85;4.75;;;13.20;99.90;;;;;;5070399;28;20048;-74
2023/01/17 05:10:22;;;;;;;10.55;4.53;;;13.10;99.90;;;;;;5069232;28;20119;-73
2023/01/17 05:12:54;;;;;;;13.45;4.93;;;13.10;99.90;;;;;;5052559;28;20089;-74
2023/01/17 05:15:22;;;;;;;23.05;10.65;;;13.10;99.90;;;;;;5069196;28;20500;-73
2023/01/17 05:17:51;;;;;;;12.18;5.03;;;13.10;99.90;;;;;;5070137;28;20513;-74
2023/01/17 05:20:20;;;;;;;6.60;3.20;;;13.10;99.90;;;;;;5068757;28;20463;-74
2023/01/17 05:22:57;;;;;;;11.77;4.78;;;13.10;99.90;;;;;;5068855;28;20674;-74
2023/01/17 05:25:27;;;;;;;10.13;4.00;;;13.10;99.90;;;;;;5069305;28;20477;-74
2023/01/17 05:27:57;;;;;;;10.65;4.00;;;13.10;99.90;;;;;;5069787;28;20048;-74
2023/01/17 05:30:25;;;;;;;10.52;4.75;;;13.10;99.90;;;;;;5052093;28;20143;-74
2023/01/17 05:32:54;;;;;;;13.82;4.32;;;13.20;99.90;;;;;;5068729;28;20040;-74
2023/01/17 05:35:25;;;;;;;15.23;5.07;;;13.20;99.90;;;;;;5052094;28;20080;-74
2023/01/17 05:37:53;;;;;;;9.13;4.20;;;13.10;99.90;;;;;;5068629;28;20148;-74
2023/01/17 05:40:29;;;;;;;8.00;4.32;;;13.10;99.90;;;;;;5051435;28;20054;-74
2023/01/17 05:42:58;;;;;;;18.02;4.55;;;13.10;99.90;;;;;;5069706;28;20135;-74
2023/01/17 05:45:28;;;;;;;18.23;5.13;;;13.10;99.90;;;;;;5069112;28;20091;-74
2023/01/17 05:47:57;;;;;;;11.30;4.90;;;13.10;99.90;;;;;;5068432;28;20068;-74
2023/01/17 05:50:28;;;;;;;13.52;4.25;;;13.10;99.90;;;;;;5068626;28;20044;-74
2023/01/17 05:52:58;;;;;;;19.00;4.05;;;13.10;99.90;;;;;;5069403;28;20047;-74
2023/01/17 05:55:28;;;;;;;6.90;3.33;;;13.10;99.90;;;;;;5069369;28;20080;-74
2023/01/17 05:57:56;;;;;;;23.00;5.00;;;13.10;99.90;;;;;;5068250;28;20048;-74
2023/01/17 06:00:24;;;;;;;12.82;3.47;;;13.10;99.90;;;;;;5051778;28;20057;-74
2023/01/17 06:02:56;;;;;;;7.88;3.72;;;13.00;99.90;;;;;;5068011;28;20147;-74
2023/01/17 06:05:25;;;;;;;19.40;6.68;;;13.00;99.90;;;;;;5069079;28;20473;-74
2023/01/17 06:07:53;;;;;;;14.05;5.10;;;13.00;99.90;;;;;;5051108;28;20445;-74
2023/01/17 06:10:22;;;;;;;13.63;4.75;;;12.90;99.90;;;;;;5068995;28;20084;-74
2023/01/17 06:12:58;;;;;;;13.73;5.68;;;12.90;99.90;;;;;;5069572;28;20033;-74
2023/01/17 06:15:26;;;;;;;;;;;12.80;99.90;;;;;;5068214;28;20036;-74
2023/01/17 06:17:53;;;;;;;20.48;12.18;;;12.80;99.90;;;;;;5068918;28;20053;-74
2023/01/17 06:20:21;;;;;;;21.17;9.52;;;12.80;99.90;;;;;;5067405;28;20143;-74
2023/01/17 06:22:48;;;;;;;17.38;6.45;;;12.80;99.90;;;;;;5069340;28;20476;-74
2023/01/17 06:25:16;;;;;;;11.40;4.97;;;12.90;99.90;;;;;;5050602;28;20119;-73
2023/01/17 06:27:43;;;;;;;12.25;4.65;;;12.90;99.90;;;;;;5067903;28;20095;-73
2023/01/17 06:30:11;;;;;;;14.27;6.13;;;12.90;99.90;;;;;;5068313;28;20388;-74
2023/01/17 06:32:39;;;;;;;12.82;4.05;;;13.00;99.90;;;;;;5068873;28;20041;-73
2023/01/17 06:35:07;;;;;;;16.33;5.57;;;13.00;99.90;;;;;;5067659;28;20055;-74
2023/01/17 06:37:34;;;;;;;15.57;5.15;;;13.00;99.90;;;;;;5068886;28;20140;-74
2023/01/17 06:40:02;;;;;;;13.55;5.57;;;13.00;99.90;;;;;;5067193;28;20032;-74
2023/01/17 06:42:30;;;;;;;16.98;7.53;;;13.00;99.90;;;;;;5067691;28;20044;-74
2023/01/17 06:44:57;;;;;;;11.30;4.53;;;13.00;99.90;;;;;;5069150;28;20068;-74
2023/01/17 06:47:25;;;;;;;18.20;5.60;;;13.10;99.90;;;;;;5068703;28;20040;-74
2023/01/17 06:49:52;;;;;;;9.60;5.28;;;13.10;99.90;;;;;;5068943;28;20041;-74
2023/01/17 06:52:19;;;;;;;16.83;6.05;;;13.10;99.90;;;;;;5067683;28;20645;-74
2023/01/17 06:54:47;;;;;;;12.85;5.72;;;13.20;99.90;;;;;;5068868;28;20288;-75
2023/01/17 06:57:14;;;;;;;22.05;6.43;;;13.20;99.90;;;;;;5068502;28;20563;-74
2023/01/17 06:59:42;;;;;;;25.45;5.40;;;13.20;99.90;;;;;;5067394;28;20137;-74
2023/01/17 07:02:10;;;;;;;13.90;5.28;;;13.30;99.90;;;;;;5050699;28;20494;-74
2023/01/17 07:04:38;;;;;;;12.27;5.32;;;13.30;99.90;;;;;;5066618;28;20568;-73
2023/01/17 07:07:05;;;;;;;17.05;7.35;;;13.30;99.90;;;;;;5066781;28;20041;-74
2023/01/17 07:09:33;;;;;;;13.40;6.18;;;13.30;99.90;;;;;;5066427;28;20106;-74
2023/01/17 07:12:01;;;;;;;12.65;5.18;;;13.30;99.90;;;;;;5051121;28;20137;-74
2023/01/17 07:14:28;;;;;;;11.15;6.05;;;13.30;99.90;;;;;;5068864;28;20437;-74
2023/01/17 07:16:56;;;;;;;14.48;6.22;;;13.30;99.90;;;;;;5069272;28;20052;-74
2023/01/17 07:19:24;;;;;;;17.48;4.97;;;13.30;99.90;;;;;;5072085;28;20098;-74
2023/01/17 07:21:53;;;;;;;9.00;3.83;;;13.30;99.90;;;;;;5072843;28;20102;-74
2023/01/17 07:24:21;;;;;;;15.80;7.25;;;13.30;99.90;;;;;;5072809;28;20074;-74
2023/01/17 07:26:49;;;;;;;14.35;6.63;;;13.30;99.90;;;;;;5054845;28;20546;-74
2023/01/17 07:29:18;;;;;;;9.82;5.55;;;13.30;99.90;;;;;;5072075;28;20457;-74
2023/01/17 07:31:47;;;;;;;18.05;5.35;;;13.30;99.90;;;;;;5070817;28;20051;-74
2023/01/17 07:34:15;;;;;;;6.53;3.63;;;13.40;99.90;;;;;;5072224;28;20052;-74
2023/01/17 07:36:42;;;;;;;18.85;7.72;;;13.40;99.90;;;;;;5071154;28;20146;-73
2023/01/17 07:39:10;;;;;;;11.95;6.20;;;13.50;99.90;;;;;;5072491;28;20127;-74
2023/01/17 07:41:40;;;;;;;11.80;5.40;;;13.50;99.90;;;;;;5072362;28;20039;-74
2023/01/17 07:44:11;;;;;;;10.55;6.38;;;13.50;99.90;;;;;;5070462;28;20066;-74
2023/01/17 07:46:39;;;;;;;19.08;8.07;;;13.60;99.90;;;;;;5070164;28;20063;-74
2023/01/17 07:49:06;;;;;;;15.88;6.72;;;13.60;99.90;;;;;;5070653;28;20106;-74
2023/01/17 07:51:34;;;;;;;15.02;8.05;;;13.60;99.90;;;;;;5070362;28;20157;-74
2023/01/17 07:54:01;;;;;;;14.90;5.95;;;13.60;99.90;;;;;;5070325;28;20052;-74
2023/01/17 07:56:29;;;;;;;17.48;5.65;;;13.60;99.90;;;;;;5070172;28;20066;-74
2023/01/17 07:58:56;;;;;;;13.52;5.90;;;13.60;99.90;;;;;;5070956;28;20049;-74
2023/01/17 08:01:24;;;;;;;13.40;5.68;;;13.60;99.90;;;;;;5069743;28;20518;-74
2023/01/17 08:03:53;;;;;;;11.07;4.00;;;13.60;99.90;;;;;;5070360;28;20462;-74
2023/01/17 08:06:24;;;;;;;21.85;6.85;;;13.70;99.90;;;;;;5070771;28;20106;-74
2023/01/17 08:08:53;;;;;;;12.23;4.90;;;13.70;99.90;;;;;;5070528;28;20064;-74
2023/01/17 08:11:21;;;;;;;17.50;6.30;;;13.80;99.90;;;;;;5071401;28;20044;-74
2023/01/17 08:13:48;;;;;;;23.30;9.07;;;13.80;99.90;;;;;;5071836;28;20064;-73
2023/01/17 08:16:16;;;;;;;34.47;18.92;;;13.80;99.90;;;;;;5071688;28;20059;-73
2023/01/17 08:18:43;;;;;;;23.52;9.82;;;13.80;99.90;;;;;;5069677;28;20429;-73
2023/01/17 08:21:15;;;;;;;15.65;7.10;;;13.80;99.90;;;;;;5070197;28;20052;-73
2023/01/17 08:23:50;;;;;;;7.47;4.68;;;13.80;99.90;;;;;;5070924;28;20067;-73
2023/01/17 08:26:22;;;;;;;16.52;4.85;;;13.80;99.90;;;;;;5071106;28;20052;-74
2023/01/17 08:28:59;;;;;;;11.82;4.55;;;13.80;99.90;;;;;;5069388;28;20498;-74
2023/01/17 08:31:32;;;;;;;7.63;3.92;;;13.80;99.90;;;;;;5052764;28;20835;-74
2023/01/17 08:34:00;;;;;;;7.93;4.40;;;13.80;99.90;;;;;;5070714;28;20036;-73
2023/01/17 08:36:29;;;;;;;20.65;4.65;;;13.80;99.90;;;;;;5070258;28;20536;-74
2023/01/17 08:38:57;;;;;;;11.75;6.07;;;13.80;99.90;;;;;;5070795;28;20438;-74
2023/01/17 08:41:26;;;;;;;17.42;5.50;;;13.80;99.90;;;;;;5070141;28;20045;-74
2023/01/17 08:43:54;;;;;;;14.05;5.18;;;13.80;99.90;;;;;;5070774;28;20064;-73
2023/01/17 08:46:21;;;;;;;11.38;4.53;;;13.90;99.90;;;;;;5071385;28;20147;-74
2023/01/17 08:48:54;;;;;;;11.20;5.00;;;13.80;99.90;;;;;;5069749;28;20820;-74
2023/01/17 08:51:25;;;;;;;13.27;5.75;;;13.80;99.90;;;;;;5069597;28;20068;-74
2023/01/17 08:53:53;;;;;;;13.68;4.22;;;13.80;99.90;;;;;;5069379;28;20135;-73
2023/01/17 08:56:26;;;;;;;12.88;5.50;;;13.90;99.90;;;;;;5069032;28;20041;-73
2023/01/17 08:58:53;;;;;;;15.23;3.92;;;13.90;99.90;;;;;;5036014;28;20052;-74
2023/01/17 09:01:20;;;;;;;11.30;4.43;;;13.90;99.90;;;;;;5070757;28;20072;-73
2023/01/17 09:03:50;;;;;;;15.70;6.45;;;14.00;99.90;;;;;;5070907;28;20064;-73
2023/01/17 09:06:17;;;;;;;12.73;4.70;;;14.00;99.90;;;;;;5070135;28;20118;-74
2023/01/17 09:08:45;;;;;;;12.32;5.28;;;14.00;99.90;;;;;;5070187;28;20798;-74
2023/01/17 09:11:15;;;;;;;12.15;4.97;;;14.10;99.90;;;;;;5069925;28;20418;-73
2023/01/17 09:13:43;;;;;;;18.80;7.28;;;14.20;99.90;;;;;;5068882;28;20056;-73
2023/01/17 09:16:11;;;;;;;8.93;5.32;;;14.20;99.90;;;;;;5052286;28;20036;-74
2023/01/17 09:18:38;;;;;;;14.48;5.45;;;14.30;99.90;;;;;;5068294;28;20570;-74
2023/01/17 09:21:15;;;;;;;11.43;5.28;;;14.30;99.90;;;;;;5068618;28;20494;-74
2023/01/17 09:23:42;;;;;;;;;;;14.30;99.90;;;;;;5053215;28;20352;-73
2023/01/17 09:26:22;;;;;;;13.68;4.22;;;14.30;99.90;;;;;;5068825;28;19979;-73
2023/01/17 09:28:50;;;;;;;13.10;6.03;;;14.30;99.90;;;;;;5070301;28;20060;-74
2023/01/17 09:31:20;;;;;;;19.88;7.40;;;14.30;99.90;;;;;;5069947;28;20554;-74
2023/01/17 09:33:49;;;;;;;14.07;5.45;;;14.30;99.90;;;;;;5068737;28;20162;-74
2023/01/17 09:36:17;;;;;;;9.60;4.80;;;14.30;99.90;;;;;;5070023;28;20068;-73
2023/01/17 09:38:45;;;;;;;11.40;4.57;;;14.40;99.90;;;;;;5067638;28;20115;-73
2023/01/17 09:41:32;;;;;;;15.45;5.68;;;14.40;99.90;;;;;;5068135;28;20665;-73
2023/01/17 09:44:02;;;;;;;46.00;27.58;;;14.40;99.90;;;;;;5068622;28;20045;-73
2023/01/17 09:46:36;;;;;;;17.35;8.52;;;14.40;99.90;;;;;;5065322;28;20132;-74
2023/01/17 09:49:30;;;;;;;14.98;6.25;;;14.40;99.90;;;;;;5062341;28;20043;-73
2023/01/17 09:51:58;;;;;;;9.82;3.83;;;14.40;99.90;;;;;;5068441;28;20173;-73
2023/01/17 09:54:37;;;;;;;9.90;3.92;;;14.40;99.90;;;;;;5068300;28;20072;-73
2023/01/17 09:57:20;;;;;;;12.55;4.75;;;14.40;99.90;;;;;;5067272;28;20044;-73
2023/01/17 10:00:15;;;;;;;10.20;5.13;;;14.50;99.90;;;;;;5065799;28;20078;-74
2023/01/17 10:02:57;;;;;;;11.25;4.82;;;14.50;99.90;;;;;;5064730;28;20048;-73
2023/01/17 10:05:54;;;;;;;9.82;4.28;;;14.50;99.90;;;;;;5056079;28;20079;-73
2023/01/17 10:08:40;;;;;;;13.18;5.63;;;14.60;99.90;;;;;;5063081;28;20041;-73
2023/01/17 10:11:26;;;;;;;12.55;5.15;;;14.60;99.90;;;;;;5059539;28;20124;-73
2023/01/17 10:14:31;;;;;;;8.80;4.28;;;14.70;99.90;;;;;;5065555;28;20102;-73
2023/01/17 10:17:35;;;;;;;11.07;6.13;;;14.70;99.90;;;;;;5067679;28;20041;-73
2023/01/17 10:20:03;;;;;;;13.65;6.15;;;14.70;99.90;;;;;;5065588;28;20057;-74
2023/01/17 10:22:55;;;;;;;11.38;4.07;;;14.70;99.90;;;;;;5067656;28;20044;-73
2023/01/17 10:25:25;;;;;;;10.20;4.82;;;14.70;99.90;;;;;;5065762;28;20213;-74
2023/01/17 10:27:57;;;;;;;11.15;4.55;;;14.70;99.90;;;;;;5061970;28;20048;-73
2023/01/17 10:30:36;;;;;;;8.07;3.95;;;14.80;99.90;;;;;;5047509;28;20128;-73
2023/01/17 10:33:20;;;;;;;26.73;5.97;;;14.80;99.90;;;;;;5066705;28;20550;-74
2023/01/17 10:35:57;;;;;;;19.52;6.32;;;14.80;99.90;;;;;;5052923;28;20033;-73
2023/01/17 10:38:31;;;;;;;26.50;7.28;;;14.80;99.90;;;;;;5067036;28;20044;-74
2023/01/17 10:41:17;;;;;;;21.52;5.28;;;14.80;99.90;;;;;;5065660;28;20066;-73
2023/01/17 10:43:57;;;;;;;14.70;6.10;;;14.80;99.90;;;;;;5067200;28;20072;-74
2023/01/17 10:46:31;;;;;;;13.95;6.13;;;14.90;99.90;;;;;;5068187;28;20091;-73
2023/01/17 10:49:00;;;;;;;17.02;4.38;;;14.90;99.90;;;;;;5067373;28;20056;-73
2023/01/17 10:51:58;;;;;;;11.85;4.32;;;14.90;99.90;;;;;;5063094;28;20121;-73
2023/01/17 10:54:29;;;;;;;11.32;4.03;;;14.90;99.90;;;;;;5082464;28;20086;-74
2023/01/17 10:56:57;;;;;;;23.50;6.40;;;15.10;99.90;;;;;;5057486;28;20157;-74
2023/01/17 10:59:31;;;;;;;11.43;5.57;;;15.10;99.90;;;;;;5065404;28;20151;-74
2023/01/17 11:02:05;;;;;;;17.52;4.50;;;15.10;99.90;;;;;;5064410;28;20040;-73
2023/01/17 11:04:39;;;;;;;7.93;4.20;;;15.10;99.90;;;;;;5066794;28;20036;-74
2023/01/17 11:07:28;;;;;;;18.05;5.32;;;15.10;99.90;;;;;;5065842;28;20060;-74
2023/01/17 11:09:57;;;;;;;13.93;5.50;;;15.20;99.90;;;;;;5065764;28;20506;-74
2023/01/17 11:12:30;;;;;;;8.48;3.55;;;15.20;99.90;;;;;;5066331;28;20537;-73
2023/01/17 11:15:09;;;;;;;8.00;5.50;;;15.10;99.90;;;;;;5066213;28;20056;-74
2023/01/17 11:17:42;;;;;;;15.48;5.93;;;15.10;99.90;;;;;;5047596;28;20140;-74
2023/01/17 11:20:53;;;;;;;12.38;5.10;;;15.10;99.90;;;;;;5061539;28;20156;-74
2023/01/17 11:23:28;;;;;;;14.93;5.15;;;15.10;99.90;;;;;;5065935;28;20152;-75
2023/01/17 11:26:01;;;;;;;17.52;7.35;;;15.10;99.90;;;;;;5067752;28;20105;-75
2023/01/17 11:28:39;;;;;;;13.23;5.65;;;15.10;99.90;;;;;;5100675;28;20091;-75
2023/01/17 11:31:23;;;;;;;11.27;6.25;;;15.10;99.90;;;;;;5067247;28;20120;-75
2023/01/17 11:34:06;;;;;;;12.30;5.03;;;15.10;99.90;;;;;;5065338;28;20041;-75
2023/01/17 11:36:34;;;;;;;16.85;5.43;;;15.10;99.90;;;;;;5059368;28;20483;-75
2023/01/17 11:39:21;;;;;;;19.42;6.28;;;15.00;99.90;;;;;;5066026;28;20091;-74
2023/01/17 11:41:49;;;;;;;22.45;6.65;;;15.00;99.90;;;;;;5062979;28;20045;-74
2023/01/17 11:44:32;;;;;;;15.82;6.72;;;15.00;99.90;;;;;;5056732;28;20125;-74
2023/01/17 11:47:11;;;;;;;16.73;5.85;;;15.00;99.90;;;;;;5046028;28;20410;-75
2023/01/17 11:49:41;;;;;;;19.35;6.55;;;15.00;99.90;;;;;;5047397;28;20451;-74
2023/01/17 11:52:15;;;;;;;9.95;4.97;;;15.00;99.90;;;;;;5066351;28;20091;-74
2023/01/17 11:54:46;;;;;;;12.90;5.78;;;15.00;99.90;;;;;;5066440;28;20132;-74
2023/01/17 11:57:32;;;;;;;30.27;6.30;;;15.00;99.90;;;;;;5067170;28;20049;-74
2023/01/17 12:00:18;;;;;;;14.85;6.38;;;15.10;99.90;;;;;;5066165;28;20048;-75
2023/01/17 12:03:06;;;;;;;25.90;7.53;;;15.10;99.90;;;;;;5069564;28;20151;-74
2023/01/17 12:05:58;;;;;;;23.67;7.05;;;15.20;99.90;;;;;;5070985;28;20056;-74
2023/01/17 12:08:39;;;;;;;23.35;11.43;;;15.20;99.90;;;;;;5053042;28;20056;-74
2023/01/17 12:11:15;;;;;;;21.90;6.35;;;15.10;99.90;;;;;;5069741;28;20040;-75
2023/01/17 12:14:01;;;;;;;19.25;6.88;;;15.20;99.90;;;;;;5070918;28;20498;-74
2023/01/17 12:17:19;;;;;;;19.08;7.38;;;15.20;99.90;;;;;;5053561;28;20051;-74
2023/01/17 12:20:00;;;;;;;25.17;7.50;;;15.20;99.90;;;;;;5008515;28;20550;-74
2023/01/17 12:22:58;;;;;;;19.27;7.50;;;15.20;99.90;;;;;;5046610;28;20056;-74
2023/01/17 12:25:47;;;;;;;19.13;5.95;;;15.30;99.90;;;;;;5051230;28;20041;-74
2023/01/17 12:28:46;;;;;;;16.48;4.95;;;15.30;99.90;;;;;;5058486;28;20037;-75
2023/01/17 12:31:32;;;;;;;20.15;6.25;;;15.30;99.90;;;;;;5069215;28;20056;-75
2023/01/17 12:34:23;;;;;;;15.70;8.02;;;15.30;99.90;;;;;;5069065;28;20045;-75
2023/01/17 12:37:23;;;;;;;17.40;6.90;;;15.30;99.90;;;;;;5069163;28;20148;-75
2023/01/17 12:40:03;;;;;;;17.25;6.82;;;15.30;99.90;;;;;;5042252;28;20055;-74
2023/01/17 12:42:37;;;;;;;23.58;6.68;;;15.30;99.90;;;;;;5050449;28;20178;-75
2023/01/17 12:45:14;;;;;;;14.82;5.40;;;15.40;99.90;;;;;;5057509;28;20507;-75
2023/01/17 12:47:46;;;;;;;19.10;7.18;;;15.40;99.90;;;;;;5036131;28;20068;-75
2023/01/17 12:50:38;;;;;;;16.60;5.88;;;15.40;99.90;;;;;;5070413;28;20082;-74
2023/01/17 12:53:43;;;;;;;13.52;5.65;;;15.40;99.90;;;;;;5065237;28;20424;-74
2023/01/17 12:56:52;;;;;;;17.58;6.03;;;15.40;99.90;;;;;;5044238;28;20895;-74
2023/01/17 12:59:41;;;;;;;15.80;6.97;;;15.50;99.90;;;;;;5019753;28;20060;-74
2023/01/17 13:02:36;;;;;;;23.27;7.65;;;15.60;99.90;;;;;;5056600;28;20048;-74
2023/01/17 13:05:24;;;;;;;9.73;5.50;;;15.60;99.90;;;;;;5063162;28;20138;-74
2023/01/17 13:08:09;;;;;;;24.27;8.23;;;15.60;99.90;;;;;;5069400;28;20044;-73
2023/01/17 13:10:53;;;;;;;22.50;9.85;;;15.60;99.90;;;;;;5069435;28;20048;-73
2023/01/17 13:13:24;;;;;;;23.88;7.68;;;15.50;99.90;;;;;;5070482;28;20060;-73
2023/01/17 13:16:01;;;;;;;22.63;6.35;;;15.50;99.90;;;;;;5069544;28;20115;-74
2023/01/17 13:18:32;;;;;;;23.00;8.45;;;15.50;99.90;;;;;;5060732;28;20064;-73
2023/01/17 13:21:10;;;;;;;21.90;6.65;;;15.40;99.90;;;;;;5069752;28;20348;-73
2023/01/17 13:24:02;;;;;;;16.33;5.85;;;15.40;99.90;;;;;;5068801;28;20122;-73
2023/01/17 13:26:54;;;;;;;27.63;6.80;;;15.40;99.90;;;;;;5061553;28;20937;-74
2023/01/17 13:29:31;;;;;;;18.35;6.25;;;15.30;99.90;;;;;;5060718;28;20045;-73
2023/01/17 13:32:01;;;;;;;;;;;15.30;99.90;;;;;;5066785;28;20060;-73
2023/01/17 13:34:53;;;;;;;21.35;7.15;;;15.30;99.90;;;;;;5067024;28;20357;-73
2023/01/17 13:38:00;;;;;;;20.13;7.85;;;15.30;99.90;;;;;;5064690;28;20052;-74
2023/01/17 13:40:47;;;;;;;27.80;7.40;;;15.30;99.90;;;;;;5068915;28;20486;-73
2023/01/17 13:43:25;;;;;;;20.40;7.45;;;15.30;99.90;;;;;;5069912;28;20504;-73
2023/01/17 13:45:58;;;;;;;13.30;6.57;;;15.30;99.90;;;;;;5068356;28;20047;-73
2023/01/17 13:48:29;;;;;;;23.63;7.65;;;15.40;99.90;;;;;;5068416;28;20347;-73
2023/01/17 13:50:58;;;;;;;19.90;9.18;;;15.40;99.90;;;;;;5068513;28;20048;-73
2023/01/17 13:53:33;;;;;;;20.83;7.35;;;15.40;99.90;;;;;;5067543;28;20052;-74
2023/01/17 13:56:27;;;;;;;17.08;7.25;;;15.40;99.90;;;;;;5068070;28;20370;-73
2023/01/17 13:59:03;;;;;;;19.35;7.50;;;15.40;99.90;;;;;;5068623;28;20513;-74
2023/01/17 14:01:33;;;;;;;23.27;7.28;;;15.40;99.90;;;;;;5066642;28;20127;-73
2023/01/17 14:04:03;;;;;;;18.13;6.38;;;15.40;99.90;;;;;;5067565;28;20480;-73
2023/01/17 14:06:47;;;;;;;23.45;7.20;;;15.40;99.90;;;;;;5067636;28;20062;-73
2023/01/17 14:09:40;;;;;;;17.35;6.05;;;15.30;99.90;;;;;;5053896;28;20080;-73
2023/01/17 14:12:10;;;;;;;14.25;5.50;;;15.30;99.90;;;;;;5065750;28;20425;-74
2023/01/17 14:14:41;;;;;;;18.85;7.00;;;15.30;99.90;;;;;;5062079;28;20059;-73
2023/01/17 14:17:15;;;;;;;15.00;7.85;;;15.30;99.90;;;;;;5068935;28;20532;-73
2023/01/17 14:19:44;;;;;;;13.52;5.80;;;15.20;99.90;;;;;;5057787;28;20072;-73
2023/01/17 14:22:19;;;;;;;30.02;7.70;;;15.20;99.90;;;;;;5065405;28;20127;-73
2023/01/17 14:25:08;;;;;;;17.98;7.60;;;15.20;99.90;;;;;;5065852;28;20036;-74
2023/01/17 14:27:46;;;;;;;14.75;5.93;;;15.20;99.90;;;;;;5069165;28;20039;-74
2023/01/17 14:30:32;;;;;;;18.58;8.15;;;15.20;99.90;;;;;;5067297;28;20089;-74